Time;durP1;ratioP1;P1;durP2;ratioP2;P2;SDS_P1;SDS_P2;PMS_P1;PMS_P2;Temp;Humidity;BMP_temperature;BMP_pressure;BME280_temperature;BME280_humidity;BME280_pressure;Samples;Min_cycle;Max_cycle;Signal;HPM_P1;HPM_P2
2023/04/01 00:01:23;;;;;;;1.70;0.60;;;13.10;71.50;;;;;;2360215;53;21041;-71
2023/04/01 00:03:51;;;;;;;1.87;0.40;;;13.10;71.50;;;;;;2611275;52;21204;-71
2023/04/01 00:06:17;;;;;;;2.97;0.73;;;13.10;71.40;;;;;;2360171;54;20926;-70
2023/04/01 00:08:44;;;;;;;1.17;0.43;;;13.10;71.20;;;;;;2360093;53;21527;-69
2023/04/01 00:11:10;;;;;;;1.25;0.30;;;13.10;71.20;;;;;;2359910;53;20959;-70
2023/04/01 00:13:37;;;;;;;1.48;0.35;;;13.10;71.30;;;;;;2359929;54;21053;-69
2023/04/01 00:16:05;;;;;;;0.73;0.30;;;13.10;71.20;;;;;;2611417;52;20986;-70
2023/04/01 00:18:38;;;;;;;0.98;0.30;;;13.10;71.10;;;;;;2612145;52;20911;-70
2023/04/01 00:21:05;;;;;;;1.10;0.30;;;13.10;70.80;;;;;;2610837;52;20922;-70
2023/04/01 00:23:32;;;;;;;1.25;0.32;;;13.10;71.00;;;;;;2359276;53;21238;-70
2023/04/01 00:26:02;;;;;;;1.27;0.30;;;13.00;70.80;;;;;;2611480;52;20976;-68
2023/04/01 00:28:28;;;;;;;1.25;0.30;;;13.00;70.50;;;;;;2577014;53;20944;-69
2023/04/01 00:30:55;;;;;;;0.82;0.20;;;13.00;70.60;;;;;;2336408;53;20966;-70
2023/04/01 00:33:21;;;;;;;0.40;0.13;;;13.00;70.40;;;;;;2344221;53;21024;-71
2023/04/01 00:35:48;;;;;;;0.45;0.20;;;13.00;70.40;;;;;;2575977;53;22138;-70
2023/04/01 00:38:14;;;;;;;0.75;0.20;;;12.90;70.40;;;;;;2332158;54;20952;-70
2023/04/01 00:40:42;;;;;;;1.33;0.20;;;12.90;70.30;;;;;;2334321;54;20935;-70
2023/04/01 00:43:19;;;;;;;0.10;0.10;;;12.90;70.30;;;;;;2588856;52;21542;-70
2023/04/01 00:45:46;;;;;;;0.90;0.30;;;12.90;70.00;;;;;;2360159;54;20925;-69
2023/04/01 00:48:20;;;;;;;2.50;0.22;;;12.90;71.20;;;;;;2359215;53;20914;-70
2023/04/01 00:50:50;;;;;;;0.37;0.20;;;12.90;70.20;;;;;;2340290;53;20982;-69
2023/04/01 00:53:17;;;;;;;0.73;0.20;;;12.90;70.40;;;;;;2358609;54;21734;-71
2023/04/01 00:55:49;;;;;;;0.13;0.10;;;12.80;71.00;;;;;;2348985;54;21360;-70
2023/04/01 00:58:16;;;;;;;1.10;0.30;;;12.80;70.20;;;;;;2600289;52;21060;-70
2023/04/01 01:00:45;;;;;;;0.93;0.25;;;12.80;70.30;;;;;;2360169;53;20926;-70
2023/04/01 01:03:12;;;;;;;0.37;0.20;;;12.80;70.20;;;;;;2338531;54;22150;-71
2023/04/01 01:06:33;;;;;;;1.37;0.30;;;12.70;70.10;;;;;;2359862;54;20973;-70
2023/04/01 01:09:10;;;;;;;0.60;0.13;;;12.70;70.00;;;;;;2339451;54;21372;-70
2023/04/01 01:11:43;;;;;;;1.10;0.40;;;12.70;70.00;;;;;;2582261;52;20950;-70
2023/04/01 01:14:13;;;;;;;;;;;12.70;70.10;;;;;;2353087;54;22112;-69
2023/04/01 01:16:44;;;;;;;0.95;0.37;;;12.70;69.20;;;;;;2350227;53;20073;-70
2023/04/01 01:19:40;;;;;;;1.62;0.40;;;12.70;70.30;;;;;;2611191;52;20954;-68
2023/04/01 01:22:45;;;;;;;1.92;0.50;;;12.60;69.90;;;;;;2362583;53;20941;-69
2023/04/01 01:27:42;;;;;;;1.33;0.30;;;12.60;70.00;;;;;;2611508;52;21012;-70
2023/04/01 01:30:35;;;;;;;2.33;0.40;;;12.60;69.50;;;;;;2581341;52;21956;-70
2023/04/01 01:33:51;;;;;;;0.50;0.20;;;12.50;70.30;;;;;;2588478;52;20981;-70
2023/04/01 01:36:20;;;;;;;1.05;0.32;;;12.60;70.00;;;;;;2604785;52;20902;-69
2023/04/01 01:38:48;;;;;;;1.87;0.30;;;12.50;70.80;;;;;;2604835;52;20917;-69
2023/04/01 01:41:14;;;;;;;2.67;0.30;;;12.50;70.80;;;;;;2335860;54;21042;-69
2023/04/01 01:43:45;;;;;;;0.80;0.40;;;12.50;70.80;;;;;;2603681;52;20977;-68
2023/04/01 01:46:14;;;;;;;1.23;0.20;;;12.50;70.90;;;;;;2611193;52;20981;-70
2023/04/01 01:48:41;;;;;;;0.93;0.30;;;12.50;70.90;;;;;;2359258;53;21445;-70
2023/04/01 01:51:07;;;;;;;1.65;0.30;;;12.50;70.90;;;;;;2366237;52;1737957;-70
2023/04/01 01:53:33;;;;;;;0.90;0.25;;;12.40;71.00;;;;;;2610168;52;21112;-70
2023/04/01 01:56:00;;;;;;;0.60;0.20;;;12.50;71.00;;;;;;2358675;54;20949;-70
2023/04/01 01:58:40;;;;;;;1.08;0.20;;;12.50;70.90;;;;;;2610377;52;20973;-69
2023/04/01 02:01:17;;;;;;;2.87;0.20;;;12.40;70.70;;;;;;2558648;52;22045;-69
2023/04/01 02:03:46;;;;;;;1.08;0.35;;;12.50;70.90;;;;;;2354742;53;21073;-69
2023/04/01 02:06:15;;;;;;;2.62;0.40;;;12.40;70.70;;;;;;2358585;54;20978;-70
2023/04/01 02:08:47;;;;;;;1.37;0.30;;;12.40;70.70;;;;;;2359271;54;20938;-70
2023/04/01 02:11:15;;;;;;;1.60;0.35;;;12.40;70.60;;;;;;2608443;52;20954;-69
2023/04/01 02:13:53;;;;;;;2.05;0.37;;;12.40;71.40;;;;;;2345302;53;21534;-69
2023/04/01 02:16:34;;;;;;;0.57;0.10;;;12.40;70.70;;;;;;2607511;52;21120;-70
2023/04/01 02:19:07;;;;;;;1.65;0.40;;;12.40;70.60;;;;;;2609715;52;20948;-68
2023/04/01 02:21:33;;;;;;;1.87;0.50;;;12.40;70.70;;;;;;2359373;53;20947;-69
2023/04/01 02:24:00;;;;;;;1.70;0.50;;;12.30;70.70;;;;;;2338336;54;21707;-69
2023/04/01 02:26:26;;;;;;;2.67;0.40;;;12.30;70.80;;;;;;2359628;54;20962;-70
2023/04/01 02:28:53;;;;;;;3.45;0.70;;;12.30;71.00;;;;;;2358390;54;21005;-70
2023/04/01 02:31:20;;;;;;;2.05;0.47;;;12.30;71.10;;;;;;2358767;54;20957;-69
2023/04/01 02:33:46;;;;;;;1.83;0.47;;;12.30;71.20;;;;;;2348939;53;21405;-70
2023/04/01 02:36:13;;;;;;;3.70;0.70;;;12.30;71.40;;;;;;2347367;53;21968;-70
2023/04/01 02:38:40;;;;;;;4.87;0.60;;;12.30;71.50;;;;;;2358402;53;20942;-70
2023/04/01 02:41:11;;;;;;;4.28;0.80;;;12.30;71.50;;;;;;2358765;53;20950;-69
2023/04/01 02:43:38;;;;;;;4.30;0.75;;;12.30;71.60;;;;;;2359202;54;21021;-69
2023/04/01 02:46:04;;;;;;;4.78;0.80;;;12.30;71.70;;;;;;2359035;53;20930;-70
2023/04/01 02:48:30;;;;;;;3.17;0.77;;;12.40;71.90;;;;;;2353129;53;21099;-70
2023/04/01 02:50:56;;;;;;;3.47;0.80;;;12.40;72.00;;;;;;2343831;53;20930;-69
2023/04/01 02:53:23;;;;;;;4.20;0.70;;;12.40;72.00;;;;;;2610840;52;20934;-70
2023/04/01 02:55:52;;;;;;;5.45;0.77;;;12.40;72.00;;;;;;2359475;53;22010;-69
2023/04/01 02:58:20;;;;;;;5.68;0.80;;;12.40;72.10;;;;;;2611631;52;20934;-70
2023/04/01 03:00:46;;;;;;;4.68;0.75;;;12.40;72.10;;;;;;2363033;53;21966;-69
2023/04/01 03:03:13;;;;;;;4.50;0.80;;;12.50;72.10;;;;;;2582838;52;20871;-70
2023/04/01 03:05:39;;;;;;;4.05;0.70;;;12.40;72.10;;;;;;2354364;53;21065;-70
2023/04/01 03:08:09;;;;;;;4.32;0.95;;;12.50;72.10;;;;;;2610502;52;20982;-69
2023/04/01 03:10:36;;;;;;;3.90;0.70;;;12.50;72.00;;;;;;2599641;52;20918;-70
2023/04/01 03:13:03;;;;;;;3.58;0.70;;;12.50;72.10;;;;;;2343877;54;21009;-69
2023/04/01 03:15:30;;;;;;;3.25;0.70;;;12.60;72.20;;;;;;2315928;54;20965;-69
2023/04/01 03:17:56;;;;;;;3.75;0.80;;;12.60;72.10;;;;;;2320490;54;20962;-69
2023/04/01 03:20:25;;;;;;;2.92;0.80;;;12.60;72.10;;;;;;2343718;53;20984;-70
2023/04/01 03:22:52;;;;;;;3.20;0.43;;;12.60;71.90;;;;;;2331686;55;20949;-70
2023/04/01 03:25:18;;;;;;;3.70;0.88;;;12.60;72.00;;;;;;2584587;52;22070;-70
2023/04/01 03:27:44;;;;;;;5.40;0.90;;;12.60;71.90;;;;;;2358550;53;21459;-69
2023/04/01 03:30:11;;;;;;;4.18;0.73;;;12.60;71.90;;;;;;2610748;52;21025;-70
2023/04/01 03:32:37;;;;;;;2.90;0.57;;;12.50;71.70;;;;;;2611424;52;20957;-70
2023/04/01 03:35:05;;;;;;;2.72;0.68;;;12.60;71.80;;;;;;2341240;54;21590;-69
2023/04/01 03:37:31;;;;;;;3.62;0.60;;;12.60;71.70;;;;;;2357995;54;21535;-70
2023/04/01 03:39:59;;;;;;;1.87;0.50;;;12.70;71.70;;;;;;2359430;53;20954;-69
2023/04/01 03:42:25;;;;;;;3.90;0.70;;;12.70;71.70;;;;;;2611854;52;21069;-70
2023/04/01 03:44:55;;;;;;;2.55;0.65;;;12.70;71.70;;;;;;2610540;52;20907;-69
2023/04/01 03:47:21;;;;;;;4.35;0.60;;;12.70;71.60;;;;;;2359923;54;21061;-69
2023/04/01 03:49:47;;;;;;;2.72;0.45;;;12.70;71.50;;;;;;2611476;52;20957;-69
2023/04/01 03:52:14;;;;;;;1.83;0.50;;;12.70;71.40;;;;;;2611426;52;20934;-70
2023/04/01 03:54:40;;;;;;;3.10;0.50;;;12.70;71.40;;;;;;2359808;53;20990;-70
2023/04/01 03:57:07;;;;;;;0.40;0.20;;;12.70;71.30;;;;;;2582366;52;20991;-70
2023/04/01 03:59:33;;;;;;;0.75;0.30;;;12.70;71.20;;;;;;2611370;52;20961;-69
2023/04/01 04:02:00;;;;;;;2.00;0.30;;;12.70;71.10;;;;;;2354503;54;20999;-70
2023/04/01 04:04:27;;;;;;;1.10;0.30;;;12.70;71.00;;;;;;2593406;52;21021;-70
2023/04/01 04:06:55;;;;;;;0.40;0.10;;;12.60;71.50;;;;;;2339379;54;20991;-69
2023/04/01 04:09:21;;;;;;;1.17;0.20;;;12.70;70.80;;;;;;2611144;52;20958;-70
2023/04/01 04:11:47;;;;;;;1.17;0.30;;;12.70;70.80;;;;;;2359757;54;20978;-69
2023/04/01 04:14:14;;;;;;;1.62;0.40;;;12.60;70.50;;;;;;2611505;52;20970;-69
2023/04/01 04:16:40;;;;;;;2.17;0.40;;;12.60;70.60;;;;;;2360275;54;20961;-69
2023/04/01 04:19:09;;;;;;;4.47;0.70;;;12.60;70.70;;;;;;2611006;52;21073;-70
2023/04/01 04:21:35;;;;;;;2.83;0.68;;;12.60;70.70;;;;;;2611611;52;20954;-68
2023/04/01 04:24:03;;;;;;;2.62;0.57;;;12.50;70.80;;;;;;2610285;52;21559;-69
2023/04/01 04:26:32;;;;;;;3.72;0.70;;;12.60;70.80;;;;;;2611433;52;20947;-70
2023/04/01 04:28:58;;;;;;;6.12;0.70;;;12.60;71.00;;;;;;2359664;54;21373;-69
2023/04/01 04:31:25;;;;;;;4.37;0.85;;;12.50;71.00;;;;;;2574165;52;21068;-69
2023/04/01 04:33:55;;;;;;;3.80;0.70;;;12.50;71.10;;;;;;2344640;54;21040;-67
2023/04/01 04:36:21;;;;;;;4.53;0.60;;;12.50;70.90;;;;;;2611052;52;21070;-69
2023/04/01 04:38:47;;;;;;;3.22;0.70;;;12.50;71.10;;;;;;2610679;52;20906;-68
2023/04/01 04:41:14;;;;;;;3.03;0.55;;;12.50;71.10;;;;;;2610883;52;21053;-69
2023/04/01 04:43:41;;;;;;;3.58;0.80;;;12.50;71.10;;;;;;2360246;54;20994;-70
2023/04/01 04:46:09;;;;;;;1.77;0.50;;;12.50;71.10;;;;;;2610849;52;21537;-69
2023/04/01 04:48:35;;;;;;;2.70;0.60;;;12.50;71.00;;;;;;2360351;53;20939;-70
2023/04/01 04:51:01;;;;;;;2.30;0.60;;;12.50;70.80;;;;;;2360083;53;20930;-69
2023/04/01 04:53:27;;;;;;;1.87;0.57;;;12.50;70.70;;;;;;2602835;52;20979;-69
2023/04/01 04:55:54;;;;;;;1.15;0.30;;;12.50;70.60;;;;;;2343101;53;21000;-69
2023/04/01 04:58:22;;;;;;;2.90;0.50;;;12.50;70.80;;;;;;2358783;53;20946;-69
2023/04/01 05:00:49;;;;;;;4.37;0.40;;;12.50;70.80;;;;;;2360085;54;20937;-69
2023/04/01 05:03:16;;;;;;;2.40;0.45;;;12.50;70.80;;;;;;2359482;53;20950;-69
2023/04/01 05:05:49;;;;;;;2.20;0.50;;;12.40;70.70;;;;;;2611267;52;22082;-69
2023/04/01 05:08:19;;;;;;;4.97;0.80;;;12.50;70.70;;;;;;2360359;53;22024;-70
2023/04/01 05:10:45;;;;;;;3.37;0.40;;;12.40;70.80;;;;;;2359845;54;20937;-68
2023/04/01 05:13:12;;;;;;;3.87;0.60;;;12.50;70.90;;;;;;2359018;53;20967;-69
2023/04/01 05:15:40;;;;;;;4.45;0.60;;;12.40;70.80;;;;;;2587510;52;21010;-70
2023/04/01 05:18:07;;;;;;;4.05;0.70;;;12.40;70.90;;;;;;2360400;54;20926;-69
2023/04/01 05:20:34;;;;;;;2.83;0.62;;;12.40;70.90;;;;;;2611286;52;20931;-70
2023/04/01 05:23:01;;;;;;;1.87;0.60;;;12.40;71.00;;;;;;2610388;52;20958;-68
2023/04/01 05:25:28;;;;;;;4.03;0.50;;;12.40;70.90;;;;;;2360315;54;20982;-69
2023/04/01 05:27:54;;;;;;;3.17;0.80;;;12.40;71.00;;;;;;2360568;53;21958;-69
2023/04/01 05:30:21;;;;;;;2.70;0.73;;;12.40;71.10;;;;;;2605575;52;21560;-69
2023/04/01 05:32:48;;;;;;;3.00;0.60;;;12.40;71.10;;;;;;2341930;53;20970;-68
2023/04/01 05:35:15;;;;;;;4.35;0.65;;;12.40;71.20;;;;;;2359497;54;21066;-69
2023/04/01 05:37:42;;;;;;;3.87;0.77;;;12.40;71.10;;;;;;2599817;52;20991;-69
2023/04/01 05:40:09;;;;;;;5.40;0.80;;;12.50;71.20;;;;;;2593956;52;20926;-70
2023/04/01 05:42:36;;;;;;;2.05;0.55;;;12.50;71.30;;;;;;2611626;52;20946;-70
2023/04/01 05:45:05;;;;;;;5.20;0.80;;;12.40;71.60;;;;;;2361507;53;20965;-69
2023/04/01 05:47:32;;;;;;;3.08;0.60;;;12.40;71.30;;;;;;2338924;53;21005;-69
2023/04/01 05:49:59;;;;;;;5.55;0.68;;;12.40;71.40;;;;;;2574782;52;21156;-69
2023/04/01 05:52:26;;;;;;;3.30;0.60;;;12.50;71.50;;;;;;2323983;54;20975;-69
2023/04/01 05:54:54;;;;;;;4.53;0.98;;;12.50;71.60;;;;;;2612142;52;20990;-69
2023/04/01 05:57:21;;;;;;;6.00;0.80;;;12.50;71.50;;;;;;2611032;52;20941;-69
2023/04/01 05:59:47;;;;;;;4.20;0.93;;;12.50;71.50;;;;;;2611930;52;21038;-69
2023/04/01 06:02:13;;;;;;;4.70;0.80;;;12.60;71.60;;;;;;2342493;53;22070;-70
2023/04/01 06:04:40;;;;;;;3.92;0.75;;;12.60;71.70;;;;;;2609066;52;22051;-69
2023/04/01 06:07:17;;;;;;;4.75;0.50;;;12.50;71.60;;;;;;2611056;52;21001;-69
2023/04/01 06:09:44;;;;;;;4.75;0.77;;;12.60;71.40;;;;;;2359589;53;20958;-69
2023/04/01 06:12:28;;;;;;;2.80;1.02;;;12.60;71.60;;;;;;2359711;53;20930;-69
2023/04/01 06:17:41;;;;;;;3.22;0.77;;;12.60;71.50;;;;;;2577073;53;21770;-70
2023/04/01 06:28:29;;;;;;;3.25;0.80;;;12.70;70.50;;;;;;2331811;53;20948;-70
2023/04/01 06:35:48;;;;;;;1.98;0.60;;;12.70;70.40;;;;;;2332557;54;20945;-70
2023/04/01 06:38:24;;;;;;;2.58;0.60;;;12.80;70.60;;;;;;2333042;54;21055;-69
2023/04/01 06:41:29;;;;;;;6.30;1.33;;;12.80;71.60;;;;;;2331562;53;20965;-69
2023/04/01 06:45:39;;;;;;;3.80;0.88;;;12.80;71.20;;;;;;2332199;54;21002;-69
2023/04/01 06:48:32;;;;;;;2.03;0.60;;;12.80;71.20;;;;;;2331636;54;20916;-69
2023/04/01 06:56:12;;;;;;;3.80;0.55;;;12.80;71.40;;;;;;2577214;53;20969;-69
2023/04/01 06:59:02;;;;;;;3.53;0.80;;;12.90;70.90;;;;;;2337121;53;22014;-69
2023/04/01 07:01:38;;;;;;;4.87;1.40;;;12.90;71.30;;;;;;2578926;53;21612;-70
2023/04/01 07:04:19;;;;;;;6.15;1.67;;;12.90;71.80;;;;;;2577652;53;20960;-69
2023/04/01 07:06:48;;;;;;;6.45;2.05;;;12.90;71.60;;;;;;2578649;53;20974;-69
2023/04/01 07:09:30;;;;;;;6.05;2.30;;;13.00;71.80;;;;;;2323113;54;20959;-69
2023/04/01 07:12:00;;;;;;;7.87;2.30;;;13.00;71.50;;;;;;2318225;54;21601;-70
2023/04/01 07:14:37;;;;;;;6.35;1.62;;;13.00;71.90;;;;;;2337189;54;21016;-70
2023/04/01 07:17:28;;;;;;;4.60;1.45;;;13.00;71.50;;;;;;2584292;52;20942;-69
2023/04/01 07:20:57;;;;;;;5.10;1.10;;;13.00;71.00;;;;;;2332891;53;21115;-70
2023/04/01 07:23:26;;;;;;;5.40;0.93;;;13.00;70.60;;;;;;2332920;53;20968;-70
2023/04/01 07:25:58;;;;;;;3.87;0.90;;;13.00;71.70;;;;;;2332192;53;20979;-70
2023/04/01 07:28:30;;;;;;;3.50;0.70;;;13.00;71.80;;;;;;2578094;53;20921;-69
2023/04/01 07:33:05;;;;;;;4.55;1.00;;;13.10;71.70;;;;;;2578119;53;21498;-70
2023/04/01 07:35:57;;;;;;;5.37;1.08;;;13.10;70.40;;;;;;2333647;54;21980;-70
2023/04/01 07:38:46;;;;;;;1.80;0.57;;;13.10;71.50;;;;;;2578295;53;21056;-70
2023/04/01 07:41:33;;;;;;;2.95;0.75;;;13.20;71.50;;;;;;2578502;53;21083;-70
2023/04/01 07:47:56;;;;;;;2.15;0.70;;;13.20;71.30;;;;;;2332687;54;20957;-70
2023/04/01 07:50:31;;;;;;;1.45;0.40;;;13.20;71.10;;;;;;2578075;53;20940;-70
2023/04/01 07:55:50;;;;;;;2.70;0.60;;;13.20;71.50;;;;;;2577965;52;21025;-70
2023/04/01 07:58:47;;;;;;;3.95;1.08;;;13.30;70.60;;;;;;2345594;54;20930;-70
2023/04/01 08:01:44;;;;;;;3.62;1.05;;;13.30;71.20;;;;;;2610939;52;20957;-70
2023/04/01 08:04:26;;;;;;;3.33;1.00;;;13.30;71.30;;;;;;2611540;52;20930;-70
2023/04/01 08:08:52;;;;;;;2.65;0.80;;;13.30;71.50;;;;;;2342705;53;21509;-68
2023/04/01 08:15:09;;;;;;;2.42;0.70;;;13.30;71.70;;;;;;2610818;52;20954;-70
2023/04/01 08:21:00;;;;;;;3.40;0.70;;;13.30;71.30;;;;;;2332897;53;21008;-70
2023/04/01 08:23:51;;;;;;;2.00;0.57;;;13.40;70.50;;;;;;2331824;53;21038;-70
2023/04/01 08:26:29;;;;;;;1.87;0.50;;;13.40;71.10;;;;;;2332155;53;20999;-70
2023/04/01 08:29:14;;;;;;;1.23;0.47;;;13.40;71.50;;;;;;2332500;53;21047;-70
2023/04/01 08:32:11;;;;;;;2.75;0.75;;;13.40;71.30;;;;;;2336342;53;20992;-70
2023/04/01 08:34:38;;;;;;;3.30;0.55;;;13.40;71.40;;;;;;2577485;52;21016;-70
2023/04/01 08:37:17;;;;;;;1.58;0.50;;;13.50;71.90;;;;;;2321244;53;20941;-69
2023/04/01 08:43:16;;;;;;;4.40;0.73;;;13.30;71.70;;;;;;2328014;53;22174;-69
2023/04/01 08:46:39;;;;;;;2.58;0.60;;;13.50;70.70;;;;;;2332581;53;21046;-70
2023/04/01 08:49:30;;;;;;;2.78;0.50;;;13.50;71.30;;;;;;2332214;53;21011;-70
2023/04/01 08:52:10;;;;;;;1.25;0.40;;;13.50;71.30;;;;;;2331750;54;20968;-69
2023/04/01 08:55:14;;;;;;;1.92;0.60;;;13.50;71.60;;;;;;2582873;52;21127;-69
2023/04/01 09:00:56;;;;;;;3.25;1.17;;;13.50;71.30;;;;;;2356205;53;20994;-69
2023/04/01 09:04:22;;;;;;;1.48;0.45;;;13.50;70.70;;;;;;2611393;52;21073;-69
2023/04/01 09:13:27;;;;;;;2.40;0.60;;;13.50;70.80;;;;;;2359868;54;20984;-70
2023/04/01 09:18:34;;;;;;;2.30;0.70;;;13.50;70.60;;;;;;2360350;53;20934;-69
2023/04/01 09:21:23;;;;;;;3.17;0.93;;;13.50;71.30;;;;;;2340480;53;20871;-70
2023/04/01 09:27:33;;;;;;;2.03;0.60;;;13.40;71.30;;;;;;2611759;52;20946;-70
2023/04/01 09:32:14;;;;;;;3.22;0.52;;;13.40;70.60;;;;;;2611396;52;21076;-69
2023/04/01 09:35:11;;;;;;;1.77;0.60;;;13.40;71.20;;;;;;2575436;53;21007;-70
2023/04/01 09:40:56;;;;;;;3.80;0.70;;;13.40;71.50;;;;;;2330774;53;20944;-69
2023/04/01 09:44:48;;;;;;;3.60;1.00;;;13.40;71.60;;;;;;2332730;53;20972;-68
2023/04/01 09:52:19;;;;;;;3.17;0.88;;;13.30;70.80;;;;;;2576869;53;20940;-70
2023/04/01 09:57:33;;;;;;;3.25;0.70;;;13.30;70.80;;;;;;2332469;53;20972;-70
2023/04/01 10:07:13;;;;;;;4.37;1.15;;;13.30;70.80;;;;;;2332819;53;21035;-68
2023/04/01 10:11:45;;;;;;;2.08;0.68;;;13.30;71.30;;;;;;2333815;53;21575;-69
2023/04/01 10:14:29;;;;;;;2.60;0.93;;;13.30;71.00;;;;;;2577967;53;20938;-70
2023/04/01 10:17:26;;;;;;;3.05;0.57;;;13.30;71.70;;;;;;2577887;53;21974;-70
2023/04/01 10:20:32;;;;;;;3.45;0.85;;;13.30;71.70;;;;;;2334060;53;20948;-70
2023/04/01 10:26:07;;;;;;;4.60;0.88;;;13.10;71.80;;;;;;2565431;53;20998;-68
2023/04/01 10:29:21;;;;;;;2.60;0.93;;;13.30;71.40;;;;;;2333661;53;21043;-69
2023/04/01 10:36:43;;;;;;;3.53;1.00;;;13.30;71.90;;;;;;2572343;53;20965;-68
2023/04/01 10:39:50;;;;;;;2.85;0.75;;;13.40;71.70;;;;;;2577300;53;21012;-69
2023/04/01 10:42:54;;;;;;;3.60;0.60;;;13.40;72.20;;;;;;2334107;53;20972;-69
2023/04/01 10:46:17;;;;;;;1.58;0.50;;;13.40;72.20;;;;;;2335421;53;20948;-69
2023/04/01 10:49:21;;;;;;;2.22;0.70;;;13.40;72.20;;;;;;2576965;53;21000;-71
2023/04/01 10:54:41;;;;;;;2.17;0.57;;;13.50;72.30;;;;;;2573171;53;22108;-69
2023/04/01 10:58:50;;;;;;;5.45;1.12;;;13.50;71.90;;;;;;2564942;53;21003;-69
2023/04/01 11:01:46;;;;;;;3.85;0.80;;;13.50;71.70;;;;;;2332987;53;21723;-71
2023/04/01 11:05:52;;;;;;;3.78;0.60;;;13.50;72.10;;;;;;2310799;55;21063;-72
2023/04/01 11:10:00;;;;;;;2.20;0.60;;;13.60;71.80;;;;;;2575094;52;21790;-69
2023/04/01 11:18:36;;;;;;;1.80;0.60;;;13.50;71.70;;;;;;2612097;52;21049;-70
2023/04/01 11:23:02;;;;;;;1.40;0.47;;;13.60;71.60;;;;;;2612099;52;20958;-71
2023/04/01 11:29:16;;;;;;;2.30;0.50;;;13.60;71.50;;;;;;2613124;52;20961;-71
2023/04/01 11:41:08;;;;;;;2.50;0.60;;;13.60;71.90;;;;;;2612480;52;20946;-70
2023/04/01 11:44:32;;;;;;;1.27;0.45;;;13.50;71.40;;;;;;2610501;52;20946;-71
2023/04/01 11:47:36;;;;;;;1.98;0.70;;;13.50;71.80;;;;;;2612241;52;21037;-71
2023/04/01 11:51:09;;;;;;;1.73;0.55;;;13.50;72.20;;;;;;2361460;53;20950;-71
2023/04/01 11:59:02;;;;;;;2.90;0.50;;;13.50;72.10;;;;;;2595962;52;20932;-70
2023/04/01 12:01:49;;;;;;;2.08;0.60;;;13.60;72.00;;;;;;2611799;52;21891;-72
2023/04/01 12:04:38;;;;;;;3.15;1.10;;;13.60;72.30;;;;;;2611899;52;20938;-71
2023/04/01 12:10:02;;;;;;;3.30;0.98;;;13.60;72.60;;;;;;2611436;52;20961;-71
2023/04/01 12:12:37;;;;;;;7.68;3.50;;;13.60;72.00;;;;;;2612035;52;21021;-71
2023/04/01 12:15:29;;;;;;;7.60;3.10;;;13.70;72.90;;;;;;2359902;54;20930;-72
2023/04/01 12:20:53;;;;;;;5.12;1.90;;;13.70;72.70;;;;;;2611404;52;20919;-71
2023/04/01 12:24:03;;;;;;;2.62;0.95;;;13.60;72.60;;;;;;2360756;54;20950;-71
2023/04/01 12:32:24;;;;;;;2.92;0.85;;;13.80;72.60;;;;;;2611875;52;20977;-72
2023/04/01 12:35:29;;;;;;;2.60;0.80;;;13.90;71.90;;;;;;2611504;52;20926;-71
2023/04/01 12:40:35;;;;;;;1.62;0.50;;;13.90;72.20;;;;;;2360085;53;20945;-70
2023/04/01 12:43:34;;;;;;;1.20;0.45;;;13.90;72.60;;;;;;2361518;53;20969;-71
2023/04/01 12:46:26;;;;;;;2.20;0.60;;;13.90;72.00;;;;;;2562155;53;21008;-71
2023/04/01 12:49:15;;;;;;;0.82;0.30;;;13.90;71.90;;;;;;2596841;52;21082;-70
2023/04/01 12:55:40;;;;;;;1.30;0.40;;;13.90;71.90;;;;;;2611953;52;20981;-70
2023/04/01 12:58:44;;;;;;;2.03;0.65;;;13.90;71.50;;;;;;2359987;54;21017;-70
2023/04/01 13:05:39;;;;;;;1.90;0.50;;;13.90;71.80;;;;;;2359936;53;21937;-71
2023/04/01 13:11:40;;;;;;;3.00;1.10;;;13.90;71.20;;;;;;2361506;53;20981;-71
2023/04/01 13:14:34;;;;;;;3.00;1.48;;;14.00;71.70;;;;;;2349149;53;20971;-70
2023/04/01 13:17:22;;;;;;;4.12;1.40;;;14.00;72.10;;;;;;2355791;53;21008;-71
2023/04/01 13:20:02;;;;;;;3.92;1.70;;;14.00;72.00;;;;;;2360418;53;20989;-71
2023/04/01 13:23:44;;;;;;;5.80;1.50;;;14.00;72.30;;;;;;2610653;52;21159;-71
2023/04/01 13:27:43;;;;;;;2.80;0.98;;;14.00;72.10;;;;;;2600606;52;20977;-72
2023/04/01 13:30:33;;;;;;;3.97;0.80;;;14.00;71.40;;;;;;2359219;53;21065;-71
2023/04/01 13:33:16;;;;;;;3.58;0.82;;;14.00;72.10;;;;;;2345075;54;20923;-70
2023/04/01 13:42:35;;;;;;;2.03;0.70;;;14.00;72.50;;;;;;2358083;53;20934;-70
2023/04/01 13:51:55;;;;;;;1.48;0.40;;;14.00;72.40;;;;;;2359608;54;21049;-70
2023/04/01 13:55:51;;;;;;;2.75;0.65;;;14.20;72.00;;;;;;2611080;52;20957;-70
2023/04/01 13:59:07;;;;;;;1.42;0.60;;;14.20;72.00;;;;;;2611358;52;20922;-70
2023/04/01 14:02:07;;;;;;;1.50;0.75;;;14.20;72.30;;;;;;2611795;52;21069;-71
2023/04/01 14:07:56;;;;;;;1.83;0.62;;;14.20;72.80;;;;;;2360521;53;22025;-72
2023/04/01 14:11:59;;;;;;;1.60;0.70;;;14.30;72.10;;;;;;2360361;53;21277;-70
2023/04/01 14:14:44;;;;;;;2.67;0.80;;;14.30;72.90;;;;;;2578177;53;20960;-71
2023/04/01 14:17:31;;;;;;;2.28;0.85;;;14.40;72.90;;;;;;2577385;53;21015;-71
2023/04/01 14:21:41;;;;;;;2.08;0.55;;;14.40;72.60;;;;;;2333240;53;21161;-70
2023/04/01 14:25:51;;;;;;;2.72;0.90;;;14.40;72.00;;;;;;2331558;53;21326;-71
2023/04/01 14:36:29;;;;;;;4.62;1.30;;;14.40;72.30;;;;;;2332863;53;20970;-71
2023/04/01 14:42:08;;;;;;;0.93;0.40;;;14.50;71.60;;;;;;2547898;53;21014;-70
2023/04/01 14:44:52;;;;;;;1.67;0.70;;;14.50;71.20;;;;;;2337476;54;20944;-72
2023/04/01 14:50:01;;;;;;;1.67;0.60;;;14.50;71.90;;;;;;2588875;52;21009;-71
2023/04/01 14:52:31;;;;;;;1.95;0.60;;;14.50;72.00;;;;;;2362307;54;21812;-70
2023/04/01 14:54:59;;;;;;;1.02;0.43;;;14.50;72.20;;;;;;2340921;54;20997;-72
2023/04/01 14:57:30;;;;;;;1.33;0.50;;;14.50;72.40;;;;;;2362268;53;21053;-70
2023/04/01 15:00:13;;;;;;;1.48;0.60;;;14.50;72.30;;;;;;2579931;53;20984;-70
2023/04/01 15:06:52;;;;;;;1.67;0.60;;;14.50;72.10;;;;;;2336006;53;21038;-72
2023/04/01 15:09:38;;;;;;;;;;;14.50;71.30;;;;;;2583448;53;21064;-71
2023/04/01 15:18:29;;;;;;;3.65;1.62;;;14.60;71.50;;;;;;2337941;53;20161;-72
2023/04/01 15:21:24;;;;;;;2.28;0.98;;;14.60;72.40;;;;;;2331545;53;21079;-71
2023/04/01 15:24:27;;;;;;;2.10;0.80;;;14.60;71.70;;;;;;2577502;53;21060;-71
2023/04/01 15:30:49;;;;;;;2.12;0.70;;;14.60;71.50;;;;;;2333040;53;21742;-72
2023/04/01 15:34:18;;;;;;;0.80;0.40;;;14.60;71.40;;;;;;2574705;53;20948;-71
2023/04/01 15:37:21;;;;;;;2.30;1.00;;;14.60;71.50;;;;;;2577442;53;20925;-70
2023/04/01 15:40:14;;;;;;;2.87;1.15;;;14.60;72.10;;;;;;2329888;53;20976;-70
2023/04/01 15:47:46;;;;;;;2.58;0.85;;;14.60;72.10;;;;;;2333132;53;20936;-70
2023/04/01 15:51:02;;;;;;;2.40;0.88;;;14.70;71.50;;;;;;2576955;53;20976;-70
2023/04/01 15:53:50;;;;;;;3.50;1.05;;;14.70;71.20;;;;;;2332633;53;21035;-72
2023/04/01 15:56:39;;;;;;;2.08;0.75;;;14.70;71.50;;;;;;2577435;53;21004;-71
2023/04/01 15:59:39;;;;;;;2.55;1.00;;;14.70;72.10;;;;;;2577108;53;20996;-70
2023/04/01 16:03:49;;;;;;;1.90;0.70;;;14.70;71.40;;;;;;2578796;53;21127;-70
2023/04/01 16:06:46;;;;;;;2.12;0.60;;;14.70;71.30;;;;;;2579955;53;20944;-71
2023/04/01 16:09:49;;;;;;;1.52;0.50;;;14.70;71.50;;;;;;2334423;53;20980;-71
2023/04/01 16:13:55;;;;;;;1.20;0.50;;;14.70;71.10;;;;;;2334749;53;20972;-72
2023/04/01 16:16:39;;;;;;;1.58;0.52;;;14.70;71.20;;;;;;2334450;53;21072;-71
2023/04/01 16:19:45;;;;;;;3.50;0.60;;;14.70;71.20;;;;;;2334080;53;21059;-70
2023/04/01 16:22:18;;;;;;;1.35;0.40;;;14.70;71.00;;;;;;2576944;53;20936;-70
2023/04/01 16:25:22;;;;;;;1.70;0.45;;;14.70;71.90;;;;;;2578055;53;20945;-72
2023/04/01 16:31:05;;;;;;;2.03;0.50;;;14.70;71.20;;;;;;2580790;53;20976;-72
2023/04/01 16:34:01;;;;;;;1.20;0.50;;;14.70;70.70;;;;;;2332665;53;21006;-71
2023/04/01 16:37:00;;;;;;;1.33;0.40;;;14.70;71.20;;;;;;2332480;54;21446;-72
2023/04/01 16:43:28;;;;;;;1.75;0.60;;;14.80;71.30;;;;;;2577545;52;20949;-72
2023/04/01 16:47:32;;;;;;;1.87;0.47;;;14.70;70.50;;;;;;2577643;52;20933;-71
2023/04/01 16:50:37;;;;;;;2.10;0.60;;;14.70;70.30;;;;;;2336449;54;20921;-72
2023/04/01 16:54:35;;;;;;;0.65;0.40;;;14.70;70.80;;;;;;2359738;54;21612;-70
2023/04/01 16:58:03;;;;;;;1.05;0.50;;;14.60;70.20;;;;;;2581957;52;20938;-69
2023/04/01 17:00:49;;;;;;;1.20;0.50;;;14.60;70.10;;;;;;2346875;53;20959;-72
2023/04/01 17:03:51;;;;;;;2.25;0.60;;;14.60;71.00;;;;;;2606912;52;20926;-72
2023/04/01 17:07:21;;;;;;;1.17;0.43;;;14.60;70.30;;;;;;2359574;53;21156;-70
2023/04/01 17:10:22;;;;;;;1.58;0.40;;;14.60;70.10;;;;;;2600178;52;22099;-72
2023/04/01 17:16:04;;;;;;;1.27;0.30;;;14.50;70.60;;;;;;2326746;54;20935;-72
2023/04/01 17:21:10;;;;;;;1.33;0.50;;;14.50;70.80;;;;;;2359455;53;21276;-71
2023/04/01 17:24:06;;;;;;;1.27;0.57;;;14.50;69.90;;;;;;2610465;52;20938;-72
2023/04/01 17:26:50;;;;;;;1.20;0.40;;;14.40;70.50;;;;;;2611232;52;21963;-72
2023/04/01 17:30:57;;;;;;;1.35;0.40;;;14.40;70.90;;;;;;2360319;53;22184;-71
2023/04/01 17:33:43;;;;;;;0.98;0.40;;;14.40;70.10;;;;;;2360081;54;20932;-71